Pleasant Dale, NE (68423)

8:54 AM CST on February 06, 2016 (GMT -0600)
4 Miles North of Milford | | Change Station
CLOSE
Current Station
Personal Weather Station
Location: Milford, NE
Elevation: 1471 ft
Nearby Weather Stations

Elev 1471 ft 40.83 °N, 97.06 °W | Updated 12 minutes ago

Mostly Cloudy
Mostly Cloudy
18.7 °F
Feels Like 19 °F
N
0.0
Wind Variable Wind from SW
Gusts 2.0 mph

Today
High -- | Low -- °F
--% Chance of Precip.
Yesterday
High -- | Low -- °F
Precip. -- in
Pressure 30.33 in
Visibility 5.0 miles
Clouds Clear
Windchill 19 °F
Dew Point 17 °F
Humidity 93%
Rainfall 0.00 in
Snow Depth Not available.
7:33 AM 5:50 PM
Waning Crescent, 5% visible
METAR KLNK 061354Z 21005KT 5SM BR CLR M08/M09 A3028 RMK AO2 SLP269 T10831094
Pressure 30.33 in
Visibility 5.0 miles
Clouds Clear
Windchill 19 °F
Dew Point 17 °F
Humidity 93%
Rainfall 0.00 in
Snow Depth Not available.
7:33 AM 5:50 PM
Waning Crescent, 5% visible
METAR KLNK 061354Z 21005KT 5SM BR CLR M08/M09 A3028 RMK AO2 SLP269 T10831094

10-Day Weather Forecast

Almanac

Astronomy

Feb. 06, 2016 Rise Set
Actual Time
Civil Twilight
Nautical Twilight
Astronomical Twilight
Moon
Length of Visible Light
Length of Day
Tomorrow will be .
, % of the Moon is Illuminated

Today's Extremes

State Highs State Lows

Community

WunderPhotos

Upload Photos

1,890,983 photos uploaded!

WunderBlog® & News

Nearby

Air Quality

  Air Quality AQ Index Pollutant
Not available.

Snow Depth

Station Depth Elevation

Earthquake Activity

City Distance Mag. Time & Date
Minimum magnitude displayed is 2.5.

Coastal Water Temperatures

Place Temperature

Stations

Nearby Weather Stations

Station Location Temp. Windchill Dew Point Humidity Wind Precip. Elev Updated Type
                   

Watches & Warnings

There are currently no watches in effect.